Time;durP1;ratioP1;P1;durP2;ratioP2;P2;SDS_P1;SDS_P2;PMS_P1;PMS_P2;Temp;Humidity;BMP_temperature;BMP_pressure;BME280_temperature;BME280_humidity;BME280_pressure;Samples;Min_cycle;Max_cycle;Signal;HPM_P1;HPM_P2
2021/03/10 00:01:09;;;;;;;42.40;19.90;;;4.70;99.90;;;;;;5088953;28;20397;-51
2021/03/10 00:03:34;;;;;;;49.72;22.30;;;6.60;99.90;;;;;;5089562;28;20378;-51
2021/03/10 00:06:00;;;;;;;42.53;21.47;;;4.80;99.90;;;;;;5089041;28;20785;-54
2021/03/10 00:08:26;;;;;;;46.53;23.23;;;4.90;99.90;;;;;;5072495;28;20417;-50
2021/03/10 00:10:51;;;;;;;49.03;23.50;;;5.00;99.90;;;;;;5088529;28;20397;-55
2021/03/10 00:13:17;;;;;;;45.40;22.77;;;5.00;99.90;;;;;;5072931;28;20427;-53
2021/03/10 00:15:42;;;;;;;44.38;21.92;;;5.10;99.90;;;;;;5090513;28;20380;-51
2021/03/10 00:18:08;;;;;;;44.33;21.70;;;5.10;99.90;;;;;;5086685;28;20905;-51
2021/03/10 00:20:34;;;;;;;46.22;22.05;;;5.20;99.90;;;;;;5090258;28;20374;-51
2021/03/10 00:22:59;;;;;;;45.80;22.10;;;5.20;99.90;;;;;;5087775;28;20394;-55
2021/03/10 00:25:27;;;;;;;46.07;22.20;;;5.30;99.90;;;;;;5088152;28;20397;-52
2021/03/10 00:27:52;;;;;;;44.73;21.90;;;5.30;99.90;;;;;;5089441;28;20385;-51
2021/03/10 00:30:18;;;;;;;44.30;22.03;;;5.50;99.90;;;;;;5088852;28;20393;-51
2021/03/10 00:32:44;;;;;;;41.55;21.10;;;5.60;99.90;;;;;;5071401;28;20399;-51
2021/03/10 00:35:10;;;;;;;42.35;21.27;;;5.70;99.90;;;;;;5087903;28;20571;-51
2021/03/10 00:37:36;;;;;;;45.85;21.38;;;5.80;99.90;;;;;;5089301;28;20405;-51
2021/03/10 00:40:02;;;;;;;44.20;20.80;;;5.80;99.90;;;;;;5088554;28;20475;-51
2021/03/10 00:42:28;;;;;;;44.00;23.08;;;5.90;99.90;;;;;;5090477;28;20389;-50
2021/03/10 00:44:53;;;;;;;39.83;21.07;;;6.00;99.90;;;;;;5087628;28;20397;-51
2021/03/10 00:47:19;;;;;;;45.20;21.83;;;6.00;99.90;;;;;;5088693;28;20840;-52
2021/03/10 00:49:45;;;;;;;42.53;20.77;;;6.00;99.90;;;;;;5089052;28;20401;-51
2021/03/10 00:52:11;;;;;;;47.73;23.43;;;5.90;99.90;;;;;;5088116;28;20812;-51
2021/03/10 00:54:37;;;;;;;44.58;21.88;;;5.90;99.90;;;;;;5071684;28;20387;-53
2021/03/10 00:57:03;;;;;;;45.63;24.50;;;6.30;99.90;;;;;;5089359;28;20482;-52
2021/03/10 00:59:29;;;;;;;47.73;24.30;;;5.40;99.90;;;;;;5088344;28;20422;-51
2021/03/10 01:01:55;;;;;;;49.87;23.07;;;5.40;99.90;;;;;;5088996;28;20952;-51
2021/03/10 01:04:20;;;;;;;50.50;24.20;;;5.30;99.90;;;;;;5088253;28;20898;-51
2021/03/10 01:06:47;;;;;;;46.95;23.77;;;5.20;99.90;;;;;;5089546;28;20378;-51
2021/03/10 01:09:13;;;;;;;53.17;25.48;;;5.30;99.90;;;;;;5088206;28;20401;-52
2021/03/10 01:11:39;;;;;;;49.38;23.20;;;5.40;99.90;;;;;;5088459;28;20402;-52
2021/03/10 01:14:05;;;;;;;52.07;24.90;;;5.30;99.90;;;;;;5088843;28;20430;-51
2021/03/10 01:16:31;;;;;;;49.03;23.80;;;5.40;99.90;;;;;;5089461;28;20381;-51
2021/03/10 01:18:57;;;;;;;47.67;24.27;;;5.40;99.90;;;;;;5087831;28;20409;-51
2021/03/10 01:21:23;;;;;;;51.13;24.10;;;5.50;99.90;;;;;;5071459;28;20428;-51
2021/03/10 01:23:49;;;;;;;52.33;24.67;;;5.50;99.90;;;;;;5088672;28;20390;-62
2021/03/10 01:26:14;;;;;;;47.38;23.30;;;5.50;99.90;;;;;;5053649;28;20425;-51
2021/03/10 01:28:40;;;;;;;45.47;22.63;;;5.60;99.90;;;;;;5089494;28;20764;-51
2021/03/10 01:31:06;;;;;;;50.73;23.97;;;5.60;99.90;;;;;;5090369;28;20443;-51
2021/03/10 01:33:32;;;;;;;51.40;23.65;;;5.60;99.90;;;;;;5093459;28;20423;-51
2021/03/10 01:35:57;;;;;;;48.63;24.48;;;6.10;99.90;;;;;;5090839;28;20417;-51
2021/03/10 01:38:23;;;;;;;47.40;23.20;;;5.70;99.90;;;;;;5073586;28;20408;-51
2021/03/10 01:40:49;;;;;;;48.42;23.67;;;5.80;99.90;;;;;;5092679;28;20381;-56
2021/03/10 01:43:14;;;;;;;48.13;24.47;;;7.10;99.90;;;;;;5074038;28;20428;-53
2021/03/10 01:45:40;;;;;;;49.97;24.02;;;6.10;99.90;;;;;;5091611;28;20812;-51
2021/03/10 01:48:08;;;;;;;47.70;24.15;;;5.90;99.90;;;;;;5073970;28;20390;-51
2021/03/10 01:50:34;;;;;;;47.55;23.88;;;5.90;99.90;;;;;;5093005;28;20461;-51
2021/03/10 01:53:00;;;;;;;51.42;24.17;;;5.90;99.90;;;;;;5090986;28;20394;-52
2021/03/10 01:55:26;;;;;;;44.67;23.30;;;5.80;99.90;;;;;;5074641;28;20484;-51
2021/03/10 01:57:52;;;;;;;52.45;24.15;;;7.50;99.90;;;;;;5090849;28;20537;-51
2021/03/10 02:00:19;;;;;;;48.30;23.70;;;6.00;99.90;;;;;;5092690;28;20401;-51
2021/03/10 02:02:44;;;;;;;47.28;23.65;;;5.70;99.90;;;;;;5091927;28;20390;-51
2021/03/10 02:05:14;;;;;;;48.67;23.85;;;5.70;99.90;;;;;;5090495;28;20385;-51
2021/03/10 02:07:52;;;;;;;42.53;22.55;;;5.60;99.90;;;;;;5074687;28;20382;-51
2021/03/10 02:10:36;;;;;;;49.00;24.23;;;5.50;99.90;;;;;;5092898;28;20374;-51
2021/03/10 02:13:28;;;;;;;50.43;24.67;;;5.50;99.90;;;;;;5091115;28;20847;-53
2021/03/10 02:16:16;;;;;;;49.60;24.67;;;5.50;99.90;;;;;;5090338;28;20401;-52
2021/03/10 02:18:46;;;;;;;50.28;24.52;;;5.60;99.90;;;;;;5092346;28;20500;-51
2021/03/10 02:21:32;;;;;;;44.20;22.25;;;5.60;99.90;;;;;;5090435;28;20390;-52
2021/03/10 02:24:03;;;;;;;50.08;25.52;;;5.50;99.90;;;;;;5042382;28;20394;-51
2021/03/10 02:27:02;;;;;;;47.55;23.35;;;5.50;99.90;;;;;;5092623;28;20443;-51
2021/03/10 02:29:30;;;;;;;52.63;24.75;;;5.50;99.90;;;;;;5090852;28;20398;-52
2021/03/10 02:31:59;;;;;;;50.53;24.73;;;5.40;99.90;;;;;;5082623;28;20385;-51
2021/03/10 02:34:27;;;;;;;51.10;25.30;;;5.50;99.90;;;;;;5091448;28;20390;-51
2021/03/10 02:36:54;;;;;;;50.43;24.23;;;5.50;99.90;;;;;;5090885;28;20422;-61
2021/03/10 02:39:21;;;;;;;52.90;24.50;;;5.40;99.90;;;;;;5091916;28;20401;-51
2021/03/10 02:41:47;;;;;;;53.45;26.60;;;5.40;99.90;;;;;;5090194;28;20428;-55
2021/03/10 02:44:14;;;;;;;53.92;25.23;;;5.80;99.90;;;;;;5091350;28;20400;-51
2021/03/10 02:46:41;;;;;;;49.25;23.90;;;5.50;99.90;;;;;;5090021;28;20523;-51
2021/03/10 02:49:07;;;;;;;52.15;24.67;;;5.50;99.90;;;;;;5089711;28;20449;-51
2021/03/10 02:51:35;;;;;;;47.53;23.90;;;5.40;99.90;;;;;;5091213;28;20388;-51
2021/03/10 02:54:02;;;;;;;55.67;26.38;;;5.30;99.90;;;;;;5091126;28;20457;-54
2021/03/10 02:56:28;;;;;;;54.90;25.50;;;5.20;99.90;;;;;;5090484;28;20390;-54
2021/03/10 02:58:54;;;;;;;51.13;25.73;;;5.20;99.90;;;;;;5090949;28;20424;-61
2021/03/10 03:01:20;;;;;;;51.60;24.13;;;5.10;99.90;;;;;;5090177;28;20924;-53
2021/03/10 03:03:46;;;;;;;51.95;23.98;;;5.10;99.90;;;;;;5091573;28;20371;-51
2021/03/10 03:06:11;;;;;;;53.45;25.30;;;5.00;99.90;;;;;;5089463;28;21011;-51
2021/03/10 03:08:37;;;;;;;53.47;25.97;;;6.80;99.90;;;;;;5080725;28;20517;-51
2021/03/10 03:11:07;;;;;;;52.30;23.97;;;4.90;99.90;;;;;;5081500;28;20433;-55
2021/03/10 03:13:34;;;;;;;53.57;24.40;;;4.90;99.90;;;;;;5091124;28;20457;-51
2021/03/10 03:16:01;;;;;;;52.30;25.20;;;4.90;99.90;;;;;;5089435;28;20485;-51
2021/03/10 03:18:28;;;;;;;47.88;24.77;;;5.00;99.90;;;;;;5091231;28;20493;-51
2021/03/10 03:20:54;;;;;;;49.78;24.77;;;5.10;99.90;;;;;;5089988;28;20398;-61
2021/03/10 03:23:22;;;;;;;56.70;25.02;;;5.10;99.90;;;;;;5089756;28;20405;-51
2021/03/10 03:25:49;;;;;;;54.08;25.73;;;5.00;99.90;;;;;;5089622;28;20454;-51
2021/03/10 03:28:18;;;;;;;51.03;25.23;;;5.20;99.90;;;;;;5089940;28;20484;-53
2021/03/10 03:30:46;;;;;;;55.10;25.17;;;5.30;99.90;;;;;;5090335;28;20481;-52
2021/03/10 03:33:15;;;;;;;47.00;24.13;;;5.10;99.90;;;;;;5090405;28;20429;-51
2021/03/10 03:35:42;;;;;;;58.28;25.05;;;5.20;99.90;;;;;;5089458;28;20774;-51
2021/03/10 03:38:09;;;;;;;54.40;24.83;;;5.20;99.90;;;;;;5089892;28;20439;-51
2021/03/10 03:40:35;;;;;;;51.60;24.65;;;5.20;99.90;;;;;;5090943;28;20381;-51
2021/03/10 03:43:02;;;;;;;50.00;24.63;;;5.20;99.90;;;;;;5088720;28;20432;-51
2021/03/10 03:45:27;;;;;;;46.00;24.17;;;5.10;99.90;;;;;;5091052;28;20386;-51
2021/03/10 03:47:55;;;;;;;59.63;25.47;;;5.10;99.90;;;;;;5090101;28;20374;-53
2021/03/10 03:50:23;;;;;;;54.13;24.88;;;5.10;99.90;;;;;;5071416;28;20498;-51
2021/03/10 03:52:49;;;;;;;52.45;24.83;;;5.00;99.90;;;;;;5088172;28;20432;-51
2021/03/10 03:55:15;;;;;;;50.65;24.17;;;5.00;99.90;;;;;;5089620;28;20630;-51
2021/03/10 03:57:41;;;;;;;50.47;24.42;;;5.00;99.90;;;;;;5089746;28;21040;-54
2021/03/10 04:00:09;;;;;;;49.15;25.20;;;4.90;99.90;;;;;;5088907;28;20899;-51
2021/03/10 04:02:35;;;;;;;47.85;24.17;;;5.00;99.90;;;;;;5072504;28;20390;-52
2021/03/10 04:05:02;;;;;;;50.25;24.98;;;6.00;99.90;;;;;;5088426;28;20416;-51
2021/03/10 04:07:28;;;;;;;47.28;24.10;;;5.00;99.90;;;;;;5090476;28;20371;-51
2021/03/10 04:09:53;;;;;;;53.60;26.17;;;5.00;99.90;;;;;;5088644;28;20424;-61
2021/03/10 04:12:19;;;;;;;49.72;24.15;;;5.00;99.90;;;;;;5089839;28;20959;-51
2021/03/10 04:14:45;;;;;;;49.70;24.10;;;5.00;99.90;;;;;;5090530;28;20428;-53
2021/03/10 04:17:10;;;;;;;51.27;25.10;;;5.00;99.90;;;;;;5071219;28;20744;-51
2021/03/10 04:19:36;;;;;;;49.83;24.75;;;4.90;99.90;;;;;;5090168;28;20440;-53
2021/03/10 04:22:02;;;;;;;54.67;24.37;;;4.90;99.90;;;;;;5089117;28;20829;-51
2021/03/10 04:24:27;;;;;;;53.10;24.73;;;4.90;99.90;;;;;;5090717;28;20378;-51
2021/03/10 04:26:53;;;;;;;56.40;25.60;;;6.60;99.90;;;;;;5089561;28;20394;-61
2021/03/10 04:29:19;;;;;;;52.58;25.15;;;4.90;99.90;;;;;;5090089;28;20976;-51
2021/03/10 04:31:44;;;;;;;54.40;25.20;;;5.00;99.90;;;;;;5077817;28;20641;-51
2021/03/10 04:34:10;;;;;;;50.60;24.60;;;5.00;99.90;;;;;;5078598;28;20874;-51
2021/03/10 04:36:36;;;;;;;49.70;24.83;;;5.60;99.90;;;;;;5060020;28;20387;-51
2021/03/10 04:39:01;;;;;;;54.88;25.35;;;5.00;99.90;;;;;;5060493;28;20410;-51
2021/03/10 04:41:27;;;;;;;54.78;24.85;;;4.90;99.90;;;;;;5076082;28;20378;-51
2021/03/10 04:43:53;;;;;;;45.37;23.80;;;5.00;99.90;;;;;;5081961;28;20391;-61
2021/03/10 04:46:18;;;;;;;51.95;24.00;;;6.10;99.90;;;;;;5050981;28;20465;-51
2021/03/10 04:48:44;;;;;;;49.93;24.60;;;5.10;99.90;;;;;;5051934;28;20391;-51
2021/03/10 04:51:10;;;;;;;51.28;24.85;;;5.20;99.90;;;;;;5084745;28;20459;-51
2021/03/10 04:53:35;;;;;;;48.15;23.77;;;6.30;99.90;;;;;;5055099;28;20818;-51
2021/03/10 04:56:01;;;;;;;50.20;24.20;;;5.90;99.90;;;;;;5082948;28;20798;-51
2021/03/10 04:58:27;;;;;;;53.17;25.58;;;5.40;99.90;;;;;;5075934;28;20500;-51
2021/03/10 05:00:53;;;;;;;47.35;23.13;;;5.30;99.90;;;;;;5078008;28;20384;-63
2021/03/10 05:03:18;;;;;;;46.57;24.13;;;5.40;99.90;;;;;;5052650;28;20723;-51
2021/03/10 05:05:44;;;;;;;48.33;24.58;;;5.40;99.90;;;;;;5079099;28;20481;-53
2021/03/10 05:08:11;;;;;;;52.05;25.02;;;5.40;99.90;;;;;;5083537;28;20886;-51
2021/03/10 05:10:37;;;;;;;45.87;24.23;;;5.30;99.90;;;;;;5086822;28;20426;-51
2021/03/10 05:13:03;;;;;;;48.10;24.30;;;5.30;99.90;;;;;;5075579;28;20763;-51
2021/03/10 05:15:28;;;;;;;46.73;23.30;;;5.30;99.90;;;;;;5073885;28;20392;-52
2021/03/10 05:17:54;;;;;;;48.55;24.45;;;5.30;99.90;;;;;;5055610;28;20380;-61
2021/03/10 05:20:20;;;;;;;53.50;24.37;;;5.30;99.90;;;;;;5055054;28;20383;-51
2021/03/10 05:22:45;;;;;;;49.53;23.77;;;5.30;99.90;;;;;;5073415;28;20475;-51
2021/03/10 05:25:11;;;;;;;50.33;24.40;;;5.40;99.90;;;;;;5072476;28;20437;-51
2021/03/10 05:27:37;;;;;;;44.47;23.90;;;5.40;99.90;;;;;;5054530;28;20803;-51
2021/03/10 05:30:06;;;;;;;51.37;25.00;;;5.40;99.90;;;;;;5072656;28;20384;-53
2021/03/10 05:32:31;;;;;;;48.47;25.10;;;5.40;99.90;;;;;;5073279;28;20406;-52
2021/03/10 05:34:57;;;;;;;50.65;24.65;;;5.30;99.90;;;;;;5072448;28;20392;-53
2021/03/10 05:37:23;;;;;;;47.33;24.13;;;5.30;99.90;;;;;;5073288;28;20848;-51
2021/03/10 05:39:48;;;;;;;47.00;23.90;;;5.30;99.90;;;;;;5073135;28;20399;-51
2021/03/10 05:42:14;;;;;;;49.77;24.43;;;5.40;99.90;;;;;;5072234;28;20459;-51
2021/03/10 05:44:40;;;;;;;50.00;25.55;;;5.40;99.90;;;;;;5054940;28;20434;-51
2021/03/10 05:47:06;;;;;;;49.70;24.88;;;5.30;99.90;;;;;;5072174;28;20851;-53
2021/03/10 05:49:32;;;;;;;55.47;26.27;;;5.30;99.90;;;;;;5076082;28;20900;-51
2021/03/10 05:52:00;;;;;;;50.20;25.45;;;5.20;99.90;;;;;;5072687;28;20388;-50
2021/03/10 05:54:29;;;;;;;55.28;25.88;;;5.10;99.90;;;;;;5072888;28;20471;-51
2021/03/10 05:56:55;;;;;;;52.65;25.33;;;4.90;99.90;;;;;;5071960;28;20474;-59
2021/03/10 05:59:21;;;;;;;54.00;26.40;;;5.00;99.90;;;;;;5054370;28;20416;-50
2021/03/10 06:01:47;;;;;;;49.75;25.15;;;5.10;99.90;;;;;;5079470;28;20862;-51
2021/03/10 06:04:12;;;;;;;47.55;24.00;;;5.50;99.90;;;;;;5090385;28;20389;-51
2021/03/10 06:06:40;;;;;;;51.20;24.43;;;5.30;99.90;;;;;;5092524;28;20371;-51
2021/03/10 06:09:20;;;;;;;58.50;29.27;;;5.50;99.90;;;;;;5090540;28;20415;-52
2021/03/10 06:11:57;;;;;;;48.05;24.50;;;5.60;99.90;;;;;;5090353;28;20406;-51
2021/03/10 06:14:23;;;;;;;46.65;24.98;;;5.70;99.90;;;;;;5090691;28;20750;-51
2021/03/10 06:17:05;;;;;;;48.42;25.23;;;5.70;99.90;;;;;;5073643;28;20386;-52
2021/03/10 06:19:45;;;;;;;47.35;25.80;;;5.70;99.90;;;;;;5085911;28;20414;-51
2021/03/10 06:22:12;;;;;;;53.08;26.13;;;5.80;99.90;;;;;;5091533;28;20382;-51
2021/03/10 06:24:38;;;;;;;47.20;24.92;;;5.80;99.90;;;;;;5092367;28;20447;-52
2021/03/10 06:27:04;;;;;;;48.08;24.20;;;5.90;99.90;;;;;;5089994;28;20949;-56
2021/03/10 06:29:30;;;;;;;52.55;24.73;;;5.90;99.90;;;;;;5090000;28;20851;-51
2021/03/10 06:32:07;;;;;;;49.60;25.77;;;6.00;99.90;;;;;;5089943;28;20894;-52
2021/03/10 06:34:43;;;;;;;53.53;26.40;;;6.00;99.90;;;;;;5092149;28;20378;-51
2021/03/10 06:37:11;;;;;;;48.75;26.00;;;6.10;99.90;;;;;;5090008;28;20826;-51
2021/03/10 06:39:36;;;;;;;50.23;25.73;;;6.20;99.90;;;;;;5090998;28;20444;-52
2021/03/10 06:42:13;;;;;;;48.50;25.37;;;6.20;99.90;;;;;;5090692;28;20426;-51
2021/03/10 06:44:51;;;;;;;49.70;25.63;;;6.30;99.90;;;;;;5092132;28;20389;-51
2021/03/10 06:47:18;;;;;;;47.10;24.52;;;6.30;99.90;;;;;;5089546;28;20394;-51
2021/03/10 06:49:54;;;;;;;54.25;25.60;;;6.40;99.90;;;;;;5091902;28;21074;-52
2021/03/10 06:52:20;;;;;;;46.08;24.20;;;6.50;99.90;;;;;;5072703;28;20413;-53
2021/03/10 06:54:57;;;;;;;43.40;22.70;;;6.60;99.90;;;;;;5060613;28;20400;-52
2021/03/10 06:57:24;;;;;;;49.60;24.90;;;6.70;99.90;;;;;;5083832;28;20948;-52
2021/03/10 06:59:51;;;;;;;49.28;25.70;;;6.90;99.90;;;;;;5089013;28;20435;-52
2021/03/10 07:02:29;;;;;;;46.90;23.73;;;6.80;99.90;;;;;;5090645;28;20734;-51
2021/03/10 07:04:56;;;;;;;53.75;24.35;;;6.80;99.90;;;;;;5088158;28;20402;-52
2021/03/10 07:07:22;;;;;;;47.50;24.38;;;6.70;99.90;;;;;;5072880;28;20386;-52
2021/03/10 07:09:49;;;;;;;50.95;25.38;;;6.90;99.90;;;;;;5090845;28;20409;-52
2021/03/10 07:12:16;;;;;;;50.78;26.08;;;6.90;99.90;;;;;;5084821;28;20617;-52
2021/03/10 07:14:42;;;;;;;51.03;24.80;;;6.90;99.90;;;;;;5091147;28;20467;-52
2021/03/10 07:17:14;;;;;;;45.90;24.27;;;6.80;99.90;;;;;;5089976;28;20389;-53
2021/03/10 07:19:41;;;;;;;47.97;24.17;;;6.70;99.90;;;;;;5090242;28;20417;-52
2021/03/10 07:22:10;;;;;;;46.15;24.35;;;6.70;99.90;;;;;;5090596;28;20391;-53
2021/03/10 07:24:54;;;;;;;48.50;23.45;;;6.70;99.90;;;;;;5089327;28;20469;-54
2021/03/10 07:27:20;;;;;;;48.13;24.17;;;6.70;99.90;;;;;;5090265;28;20393;-52
2021/03/10 07:29:50;;;;;;;43.63;23.77;;;6.80;99.90;;;;;;5079750;28;20401;-52
2021/03/10 07:32:23;;;;;;;43.03;24.00;;;6.80;99.90;;;;;;5089150;28;20394;-52
2021/03/10 07:35:08;;;;;;;48.85;24.95;;;7.90;99.90;;;;;;5091090;28;20382;-52
2021/03/10 07:37:35;;;;;;;48.97;25.98;;;7.00;99.90;;;;;;5089331;28;20926;-51
2021/03/10 07:40:17;;;;;;;44.07;23.10;;;7.40;99.90;;;;;;5078956;28;20404;-51
2021/03/10 07:42:51;;;;;;;46.63;24.20;;;6.80;99.90;;;;;;5090433;28;20374;-52
2021/03/10 07:45:17;;;;;;;50.22;24.67;;;6.70;99.90;;;;;;5071651;28;20389;-52
2021/03/10 07:47:57;;;;;;;50.90;25.23;;;6.80;99.90;;;;;;5089634;28;20942;-51
2021/03/10 07:50:24;;;;;;;43.20;23.80;;;7.00;99.90;;;;;;5089819;28;20840;-52
2021/03/10 07:52:54;;;;;;;50.90;24.92;;;6.90;99.90;;;;;;5071320;28;20394;-51
2021/03/10 07:55:21;;;;;;;45.95;24.48;;;7.00;99.90;;;;;;5088586;28;20398;-55
2021/03/10 07:57:51;;;;;;;46.92;24.58;;;7.00;99.90;;;;;;5088944;28;20887;-52
2021/03/10 08:00:17;;;;;;;45.75;23.33;;;7.10;99.90;;;;;;5089444;28;20421;-58
2021/03/10 08:02:45;;;;;;;46.70;24.48;;;7.20;99.90;;;;;;5085578;28;20814;-51
2021/03/10 08:05:21;;;;;;;48.28;24.02;;;7.40;99.90;;;;;;5068693;28;20479;-51
2021/03/10 08:07:47;;;;;;;43.75;23.73;;;7.60;99.90;;;;;;5089888;28;20486;-51
2021/03/10 08:10:27;;;;;;;43.42;22.52;;;7.40;99.90;;;;;;5071040;28;20956;-51
2021/03/10 08:12:52;;;;;;;40.13;22.40;;;7.50;99.90;;;;;;5070145;28;20458;-51
2021/03/10 08:15:24;;;;;;;45.23;23.80;;;7.40;99.90;;;;;;5089331;28;21055;-52
2021/03/10 08:18:02;;;;;;;45.75;23.00;;;7.30;99.90;;;;;;5085627;28;20450;-52
2021/03/10 08:20:32;;;;;;;41.10;22.67;;;7.40;99.90;;;;;;5087840;28;20407;-52
2021/03/10 08:22:58;;;;;;;48.38;23.98;;;7.20;99.90;;;;;;5088463;28;20450;-63
2021/03/10 08:25:24;;;;;;;42.57;21.33;;;7.30;99.90;;;;;;5089357;28;20489;-51
2021/03/10 08:27:50;;;;;;;45.55;23.33;;;7.40;99.90;;;;;;5090043;28;20419;-52
2021/03/10 08:30:21;;;;;;;45.22;23.70;;;7.60;99.90;;;;;;5087530;28;20402;-52
2021/03/10 08:32:47;;;;;;;47.00;24.42;;;7.80;99.90;;;;;;5089495;28;20499;-52
2021/03/10 08:35:14;;;;;;;47.67;24.73;;;7.80;99.90;;;;;;5081634;28;20481;-52
2021/03/10 08:37:41;;;;;;;48.95;23.52;;;8.10;99.90;;;;;;5088236;28;20374;-53
2021/03/10 08:40:10;;;;;;;43.97;23.13;;;8.00;99.90;;;;;;5091019;28;20406;-53
2021/03/10 08:42:36;;;;;;;45.22;22.77;;;8.20;99.90;;;;;;5074675;28;20505;-56
2021/03/10 08:45:04;;;;;;;42.00;21.47;;;8.00;99.90;;;;;;5092589;28;20488;-51
2021/03/10 08:47:30;;;;;;;40.53;20.90;;;7.90;99.90;;;;;;5092191;28;20421;-52
2021/03/10 08:49:58;;;;;;;41.22;21.00;;;7.90;99.90;;;;;;5094132;28;20378;-62
2021/03/10 08:52:25;;;;;;;44.95;22.25;;;8.30;99.90;;;;;;5092161;28;20378;-52
2021/03/10 08:55:02;;;;;;;38.80;20.60;;;8.60;99.90;;;;;;5074972;28;20440;-53
2021/03/10 08:57:29;;;;;;;39.58;21.67;;;8.80;99.90;;;;;;5091637;28;20437;-53
2021/03/10 08:59:55;;;;;;;42.33;22.33;;;9.00;99.90;;;;;;5073328;28;20461;-53
2021/03/10 09:02:27;;;;;;;39.67;20.67;;;8.80;99.90;;;;;;5073949;28;20385;-52
2021/03/10 09:04:54;;;;;;;43.40;21.58;;;8.80;99.90;;;;;;5090066;28;20402;-52
2021/03/10 09:07:20;;;;;;;39.05;19.15;;;8.70;99.90;;;;;;5091884;28;23458;-52
2021/03/10 09:09:47;;;;;;;38.10;19.90;;;8.80;99.90;;;;;;5092883;28;20402;-52
2021/03/10 09:12:15;;;;;;;39.25;19.90;;;8.90;99.90;;;;;;5091376;28;20472;-53
2021/03/10 09:14:42;;;;;;;35.05;19.70;;;8.90;99.90;;;;;;5092816;28;20465;-53
2021/03/10 09:17:08;;;;;;;36.72;20.73;;;9.00;99.90;;;;;;5091933;28;20375;-53
2021/03/10 09:19:39;;;;;;;39.78;20.35;;;9.40;99.90;;;;;;5092381;28;20492;-52
2021/03/10 09:22:25;;;;;;;35.63;19.05;;;10.00;99.90;;;;;;5085768;28;20401;-53
2021/03/10 09:24:53;;;;;;;38.03;20.45;;;9.80;99.90;;;;;;5074641;28;20879;-52
2021/03/10 09:27:30;;;;;;;40.03;21.77;;;9.80;99.90;;;;;;5090385;28;20754;-53
2021/03/10 09:30:02;;;;;;;36.40;20.27;;;9.70;99.90;;;;;;5093159;28;20378;-52
2021/03/10 09:32:43;;;;;;;38.13;19.30;;;9.40;99.90;;;;;;5091918;28;20875;-53
2021/03/10 09:35:33;;;;;;;38.72;19.98;;;9.20;99.90;;;;;;5073949;28;20476;-52
2021/03/10 09:38:07;;;;;;;39.30;20.50;;;10.00;99.90;;;;;;5073156;28;20428;-65
2021/03/10 09:40:41;;;;;;;37.58;19.95;;;10.30;99.90;;;;;;5092103;28;20773;-52
2021/03/10 09:43:09;;;;;;;38.13;20.50;;;10.30;99.90;;;;;;5090717;28;20448;-52
2021/03/10 09:45:37;;;;;;;36.42;19.02;;;10.30;99.90;;;;;;5093117;28;20431;-53
2021/03/10 09:48:04;;;;;;;39.13;20.50;;;10.60;99.90;;;;;;5090061;28;20409;-53
2021/03/10 09:50:33;;;;;;;35.72;18.73;;;11.10;99.90;;;;;;5092023;28;20396;-53
2021/03/10 09:52:59;;;;;;;35.83;19.17;;;11.20;99.90;;;;;;5071052;28;20429;-64
2021/03/10 09:55:26;;;;;;;36.60;19.70;;;11.30;99.90;;;;;;5091431;28;20430;-53
2021/03/10 09:58:06;;;;;;;31.50;16.93;;;11.40;99.90;;;;;;5073706;28;20777;-56
2021/03/10 10:00:32;;;;;;;30.08;16.42;;;12.00;99.90;;;;;;5092626;28;20470;-56
2021/03/10 10:02:58;;;;;;;34.10;18.80;;;11.70;99.90;;;;;;5067297;28;20764;-65
2021/03/10 10:05:35;;;;;;;33.78;17.33;;;9.60;99.90;;;;;;5089735;28;20453;-52
2021/03/10 10:08:03;;;;;;;27.42;14.73;;;11.40;99.90;;;;;;5090240;28;20390;-68
2021/03/10 10:10:29;;;;;;;31.63;16.48;;;10.80;99.90;;;;;;5092155;28;20854;-52
2021/03/10 10:12:56;;;;;;;24.70;12.52;;;11.00;99.90;;;;;;5090973;28;20394;-55
2021/03/10 10:15:26;;;;;;;26.90;12.40;;;11.40;99.90;;;;;;5091241;28;20374;-53
2021/03/10 10:17:55;;;;;;;18.85;10.02;;;10.60;99.90;;;;;;5091336;28;20404;-52
2021/03/10 10:20:23;;;;;;;20.30;9.60;;;10.30;99.90;;;;;;5090271;28;20486;-52
2021/03/10 10:22:49;;;;;;;12.73;5.43;;;10.10;98.70;;;;;;5090477;28;20390;-52
2021/03/10 10:25:18;;;;;;;18.40;7.90;;;9.70;96.90;;;;;;5091361;28;20781;-52
2021/03/10 10:27:45;;;;;;;18.42;9.00;;;9.80;99.60;;;;;;5072161;28;20459;-53
2021/03/10 10:30:14;;;;;;;15.60;8.00;;;10.50;98.50;;;;;;5091218;28;20461;-53
2021/03/10 10:32:41;;;;;;;17.00;8.83;;;11.30;96.50;;;;;;5072324;28;20394;-53
2021/03/10 10:35:08;;;;;;;18.40;8.55;;;11.00;95.50;;;;;;5072045;28;20829;-53
2021/03/10 10:37:34;;;;;;;17.05;8.40;;;10.70;94.60;;;;;;5090862;28;20376;-53
2021/03/10 10:40:00;;;;;;;18.43;9.87;;;10.50;95.70;;;;;;5089709;28;20409;-64
2021/03/10 10:42:26;;;;;;;16.13;7.75;;;10.40;96.50;;;;;;5090656;28;20470;-58
2021/03/10 10:44:52;;;;;;;15.73;6.88;;;10.30;95.60;;;;;;5090864;28;20497;-53
2021/03/10 10:47:19;;;;;;;15.75;7.45;;;10.20;94.20;;;;;;5090576;28;20462;-53
2021/03/10 10:49:44;;;;;;;14.20;6.70;;;9.80;95.80;;;;;;5091787;28;20848;-59
2021/03/10 10:52:10;;;;;;;10.20;4.80;;;10.00;94.40;;;;;;5088987;28;20443;-54
2021/03/10 10:54:36;;;;;;;10.87;5.30;;;10.20;93.30;;;;;;5091407;28;20410;-53
2021/03/10 10:57:02;;;;;;;12.57;5.90;;;10.40;92.10;;;;;;5071436;28;20451;-67
2021/03/10 10:59:27;;;;;;;11.68;6.03;;;10.70;92.30;;;;;;5072543;28;20422;-53
2021/03/10 11:01:53;;;;;;;13.47;6.90;;;11.10;91.60;;;;;;5089491;28;20840;-53
2021/03/10 11:04:19;;;;;;;13.27;6.03;;;11.50;91.10;;;;;;5084698;28;20394;-53
2021/03/10 11:06:44;;;;;;;11.10;5.50;;;12.10;90.00;;;;;;5065810;28;20405;-53
2021/03/10 11:09:10;;;;;;;13.57;5.70;;;12.50;85.10;;;;;;5069981;28;20412;-55
2021/03/10 11:11:36;;;;;;;12.82;6.50;;;12.00;81.10;;;;;;5080652;28;20457;-57
2021/03/10 11:14:02;;;;;;;10.27;5.10;;;12.70;81.70;;;;;;5081660;28;20385;-57
2021/03/10 11:16:28;;;;;;;10.85;5.40;;;12.60;77.60;;;;;;5082967;28;20936;-53
2021/03/10 11:18:54;;;;;;;11.37;5.73;;;12.10;78.70;;;;;;5069495;28;20437;-53
2021/03/10 11:21:20;;;;;;;12.50;5.60;;;12.40;81.60;;;;;;5084060;28;20459;-55
2021/03/10 11:23:46;;;;;;;12.20;6.05;;;12.40;79.00;;;;;;5082671;28;20394;-54
2021/03/10 11:26:12;;;;;;;14.43;6.57;;;12.40;77.80;;;;;;5089474;28;20386;-56
2021/03/10 11:28:38;;;;;;;11.32;5.95;;;12.90;80.80;;;;;;5088895;28;20747;-53
2021/03/10 11:31:04;;;;;;;11.43;5.13;;;12.90;77.50;;;;;;5085768;28;20405;-54
2021/03/10 11:33:30;;;;;;;17.00;6.65;;;12.40;76.20;;;;;;5087404;28;20413;-53
2021/03/10 11:35:55;;;;;;;13.40;7.07;;;12.30;77.90;;;;;;5084538;28;20864;-52
2021/03/10 11:38:21;;;;;;;15.27;7.55;;;12.20;80.10;;;;;;5064838;28;21086;-55
2021/03/10 11:40:47;;;;;;;17.13;8.40;;;11.70;81.90;;;;;;5088917;28;20732;-53
2021/03/10 11:43:16;;;;;;;15.48;7.93;;;11.50;83.90;;;;;;5080597;28;20390;-53
2021/03/10 11:45:42;;;;;;;15.23;7.60;;;11.20;85.10;;;;;;5085568;28;20401;-54
2021/03/10 11:48:08;;;;;;;14.47;7.80;;;11.20;84.00;;;;;;5069967;28;20394;-51
2021/03/10 11:50:36;;;;;;;16.40;8.10;;;11.20;83.90;;;;;;5089784;28;20430;-57
2021/03/10 11:53:06;;;;;;;16.15;6.75;;;11.40;82.40;;;;;;5087967;28;20474;-64
2021/03/10 11:55:32;;;;;;;13.27;6.80;;;11.20;82.60;;;;;;5089789;28;20397;-53
2021/03/10 11:57:59;;;;;;;14.00;6.68;;;11.00;83.70;;;;;;5072148;28;20848;-53
2021/03/10 12:00:25;;;;;;;12.65;6.75;;;10.80;84.20;;;;;;5087338;28;20500;-57
2021/03/10 12:02:52;;;;;;;12.45;6.63;;;11.00;84.60;;;;;;5085448;28;20483;-53
2021/03/10 12:05:18;;;;;;;14.05;7.35;;;11.40;83.10;;;;;;5084403;28;20492;-58
2021/03/10 12:07:44;;;;;;;12.27;7.03;;;11.70;83.30;;;;;;5084058;28;20434;-60
2021/03/10 12:10:10;;;;;;;14.02;6.80;;;11.90;82.10;;;;;;5082283;28;20439;-53
2021/03/10 12:12:36;;;;;;;15.30;8.10;;;11.90;81.90;;;;;;5067433;28;20990;-53
2021/03/10 12:15:03;;;;;;;13.70;7.30;;;12.30;81.50;;;;;;5087277;28;20419;-64
2021/03/10 12:17:28;;;;;;;20.13;7.30;;;12.50;80.20;;;;;;5080901;28;20386;-54
2021/03/10 12:19:54;;;;;;;14.93;7.03;;;12.90;77.90;;;;;;5085731;28;20485;-53
2021/03/10 12:22:20;;;;;;;11.90;5.90;;;12.90;75.50;;;;;;5082963;28;21341;-53
2021/03/10 12:24:46;;;;;;;13.07;6.55;;;13.00;74.00;;;;;;5080643;28;20398;-53
2021/03/10 12:27:22;;;;;;;11.80;6.43;;;13.00;75.50;;;;;;5086159;28;20985;-54
2021/03/10 12:29:49;;;;;;;11.70;5.90;;;13.10;74.60;;;;;;5085092;28;20402;-54
2021/03/10 12:32:15;;;;;;;10.95;5.70;;;13.10;72.40;;;;;;5084663;28;20415;-54
2021/03/10 12:34:41;;;;;;;11.93;5.60;;;12.80;71.00;;;;;;5080801;28;20490;-53
2021/03/10 12:37:07;;;;;;;12.88;6.57;;;12.50;70.40;;;;;;5087249;28;20417;-53
2021/03/10 12:39:33;;;;;;;11.82;6.38;;;12.20;73.70;;;;;;5062913;28;20751;-53